航空天氣報告(METAR) 航空天氣預測(TAF) 其他聯結
怎樣閱讀航空天氣報告? 過往48小時航空天氣(METAR)報告
本月內所有航空天氣(METAR)報告
最新航空天氣報告(METAR)(香港國際機場發出)
地區編碼:VHHH

METAR VHHH 191200Z 10014KT 9999 -SHRA FEW012 SCT028 23/21 Q1007 
NOSIG= 

最新航空天氣預測(TAF)(香港國際機場發出)
地區編碼:VHHH

TAF VHHH 191100Z 1912/2018 15010KT 8000 FEW010 SCT025 TX30/2006Z 
TN23/1912Z TN25/1922Z TEMPO 1912/1918 09010KT TEMPO 1912/1915 3000 
-TSRA SHRA FEW008 SCT015CB BKN040 TEMPO 1915/1918 3000 SHRA FEW010CB 
SCT020 TEMPO 2003/2009 4000 SHRA FEW010CB SCT020= 

其他聯結

National Weather Service (NWS)

請選擇氣象中心地點:

最新METAR報告:

最新TAF報告:

香港地下天文台

地區編碼:VHHH (香港國際機場)

最新地面氣象分析報告 (每六小時更新一次)
最新METAR報告
最新TAF報告

Hong Kong Weather Graphics

地區編碼:VHHH (香港國際機場)

此網站將過往72小時的METAR報告繪成以下圖表。

氣溫
能見度
大氣氣壓
風向及風速

香港天文台

香港航空天氣預報
機場天氣報告(METAR/SPECI)
機場天氣預報(TAF)


如對本網頁有任何意見,歡迎電郵致webmaster@weatherland.org.hk